createdAt,value
2023-02-28T00:01:14.500Z,101856.70
2023-02-28T00:03:42.916Z,101855.33
2023-02-28T00:06:11.098Z,101857.67
2023-02-28T00:08:39.832Z,101855.22
2023-02-28T00:11:10.086Z,101854.91
2023-02-28T00:13:40.625Z,101858.55
2023-02-28T00:16:10.867Z,101860.12
2023-02-28T00:18:38.892Z,101861.79
2023-02-28T00:21:07.941Z,101863.55
2023-02-28T00:23:36.598Z,101863.81
2023-02-28T00:26:05.136Z,101865.30
2023-02-28T00:28:33.682Z,101868.91
2023-02-28T00:31:01.808Z,101871.65
2023-02-28T00:33:30.641Z,101875.09
2023-02-28T00:36:08.465Z,101874.86
2023-02-28T00:38:38.212Z,101875.30
2023-02-28T00:41:07.504Z,101875.16
2023-02-28T00:43:37.365Z,101869.42
2023-02-28T00:46:06.946Z,101868.31
2023-02-28T00:48:35.293Z,101873.30
2023-02-28T00:51:04.225Z,101873.60
2023-02-28T00:53:33.254Z,101867.95
2023-02-28T00:56:01.326Z,101868.14
2023-02-28T00:58:29.641Z,101867.30
2023-02-28T01:00:57.877Z,101868.98
2023-02-28T01:03:25.840Z,101868.44
2023-02-28T01:05:53.919Z,101867.03
2023-02-28T01:08:22.014Z,101868.52
2023-02-28T01:10:50.304Z,101865.40
2023-02-28T01:13:18.741Z,101868.44
2023-02-28T01:15:50.127Z,101866.45
2023-02-28T01:18:18.157Z,101868.35
2023-02-28T01:20:46.638Z,101867.31
2023-02-28T01:23:14.696Z,101865.34
2023-02-28T01:25:42.875Z,101865.48
2023-02-28T01:28:10.894Z,101865.98
2023-02-28T01:30:38.918Z,101866.96
2023-02-28T01:33:08.034Z,101867.63
2023-02-28T01:35:36.849Z,101874.73
2023-02-28T01:38:20.531Z,101873.59
2023-02-28T01:40:49.380Z,101873.30
2023-02-28T01:43:24.765Z,101874.09
2023-02-28T01:45:54.489Z,101876.29
2023-02-28T01:48:27.092Z,101874.52
2023-02-28T01:51:00.264Z,101875.92
2023-02-28T01:53:33.114Z,101878.73
2023-02-28T01:56:04.640Z,101877.09
2023-02-28T01:58:33.069Z,101878.14
2023-02-28T02:01:03.298Z,101881.60
2023-02-28T02:03:31.985Z,101882.35
2023-02-28T02:06:00.879Z,101876.80
2023-02-28T02:08:30.677Z,101873.16
2023-02-28T02:11:00.891Z,101873.35
2023-02-28T02:13:43.090Z,101876.45
2023-02-28T02:16:28.360Z,101878.06
2023-02-28T02:19:03.555Z,101877.20
2023-02-28T02:22:03.709Z,101875.18
2023-02-28T02:25:00.177Z,101877.77
2023-02-28T02:27:46.069Z,101877.49
2023-02-28T02:30:33.789Z,101880.05
2023-02-28T02:33:16.636Z,101876.04
2023-02-28T02:35:52.092Z,101876.67
2023-02-28T02:38:27.416Z,101875.77
2023-02-28T02:41:04.060Z,101877.98
2023-02-28T02:43:39.758Z,101882.11
2023-02-28T02:46:15.600Z,101885.05
2023-02-28T02:48:47.767Z,101882.05
2023-02-28T02:51:19.762Z,101884.96
2023-02-28T02:53:51.397Z,101886.08
2023-02-28T02:56:23.637Z,101888.45
2023-02-28T02:58:54.392Z,101889.18
2023-02-28T03:01:28.428Z,101889.42
2023-02-28T03:04:00.264Z,101892.33
2023-02-28T03:06:28.500Z,101895.04
2023-02-28T03:08:56.486Z,101892.81
2023-02-28T03:11:24.972Z,101890.35
2023-02-28T03:14:16.270Z,101895.13
2023-02-28T03:17:12.719Z,101897.63
2023-02-28T03:19:52.609Z,101894.86
2023-02-28T03:22:40.428Z,101894.33
2023-02-28T03:25:15.054Z,101894.09
2023-02-28T03:27:55.943Z,101894.15
2023-02-28T03:30:30.380Z,101894.09
2023-02-28T03:33:05.011Z,101897.08
2023-02-28T03:35:37.880Z,101894.59
2023-02-28T03:38:14.378Z,101900.18
2023-02-28T03:40:47.227Z,101900.92
2023-02-28T03:43:21.998Z,101897.57
2023-02-28T03:45:53.365Z,101899.45
2023-02-28T03:48:26.621Z,101902.73
2023-02-28T03:50:58.867Z,101902.89
2023-02-28T03:53:31.666Z,101903.71
2023-02-28T03:56:04.764Z,101903.38
2023-02-28T03:58:38.568Z,101906.54
2023-02-28T04:01:13.844Z,101907.42
2023-02-28T04:03:41.055Z,101909.08
2023-02-28T04:06:17.160Z,101905.17
2023-02-28T04:08:45.166Z,101905.66
2023-02-28T04:11:21.745Z,101907.78
2023-02-28T04:13:49.737Z,101910.05
2023-02-28T04:16:33.546Z,101909.11
2023-02-28T04:19:03.200Z,101908.20
2023-02-28T04:21:33.250Z,101913.21
2023-02-28T04:24:03.033Z,101910.73
2023-02-28T04:26:31.968Z,101911.37
2023-02-28T04:29:00.929Z,101910.56
2023-02-28T04:31:29.372Z,101912.13
2023-02-28T04:33:58.314Z,101907.08
2023-02-28T04:36:26.981Z,101908.76
2023-02-28T04:38:55.365Z,101905.98
2023-02-28T04:41:24.254Z,101906.58
2023-02-28T04:43:53.041Z,101908.75
2023-02-28T04:46:21.510Z,101911.33
2023-02-28T04:48:49.930Z,101912.23
2023-02-28T04:51:20.000Z,101912.36
2023-02-28T04:53:48.742Z,101912.50
2023-02-28T04:56:18.385Z,101919.79
2023-02-28T04:58:46.512Z,101920.02
2023-02-28T05:01:21.173Z,101921.36
2023-02-28T05:03:50.291Z,101921.38
2023-02-28T05:06:19.409Z,101918.91
2023-02-28T05:08:47.768Z,101917.66
2023-02-28T05:11:19.123Z,101922.52
2023-02-28T05:13:49.681Z,101929.44
2023-02-28T05:16:19.107Z,101933.98
2023-02-28T05:18:47.722Z,101938.14
2023-02-28T05:21:26.146Z,101945.02
2023-02-28T05:23:55.489Z,101948.23
2023-02-28T05:26:26.929Z,101951.14
2023-02-28T05:28:56.047Z,101952.40
2023-02-28T05:31:24.938Z,101954.66
2023-02-28T05:33:53.505Z,101956.58
2023-02-28T05:36:22.214Z,101958.92
2023-02-28T05:38:51.061Z,101963.11
2023-02-28T05:41:20.617Z,101962.40
2023-02-28T05:43:49.010Z,101962.08
2023-02-28T05:46:17.222Z,101964.57
2023-02-28T05:48:48.280Z,101966.75
2023-02-28T05:51:17.196Z,101969.40
2023-02-28T05:53:45.797Z,101974.04
2023-02-28T05:56:14.013Z,101973.77
2023-02-28T05:58:54.560Z,101976.73
2023-02-28T06:01:33.801Z,101980.09
2023-02-28T06:04:05.662Z,101981.73
2023-02-28T06:06:37.113Z,101979.96
2023-02-28T06:09:05.751Z,101981.61
2023-02-28T06:11:34.245Z,101978.20
2023-02-28T06:14:02.995Z,101981.44
2023-02-28T06:16:33.860Z,101979.09
2023-02-28T06:19:03.771Z,101980.18
2023-02-28T06:21:32.525Z,101982.71
2023-02-28T06:24:01.449Z,101983.70
2023-02-28T06:26:30.052Z,101976.07
2023-02-28T06:28:58.367Z,101975.47
2023-02-28T06:31:26.463Z,101973.94
2023-02-28T06:33:54.724Z,101966.48
2023-02-28T06:36:22.878Z,101959.17
2023-02-28T06:38:54.947Z,101958.23
2023-02-28T06:41:25.271Z,101951.58
2023-02-28T06:43:55.123Z,101949.79
2023-02-28T06:46:29.831Z,101941.33
2023-02-28T06:48:58.026Z,101934.75
2023-02-28T06:51:27.603Z,101931.91
2023-02-28T06:53:55.779Z,101927.99
2023-02-28T06:56:23.872Z,101923.10
2023-02-28T06:58:53.132Z,101916.98
2023-02-28T07:01:23.327Z,101914.14
2023-02-28T07:03:53.162Z,101911.03
2023-02-28T07:06:22.971Z,101911.80
2023-02-28T07:08:52.333Z,101911.48
2023-02-28T07:11:22.817Z,101913.48
2023-02-28T07:13:51.427Z,101912.98
2023-02-28T07:16:20.190Z,101913.59
2023-02-28T07:18:49.694Z,101913.37
2023-02-28T07:21:17.791Z,101908.58
2023-02-28T07:23:46.200Z,101907.38
2023-02-28T07:26:16.060Z,101905.11
2023-02-28T07:28:45.515Z,101905.09
2023-02-28T07:31:14.927Z,101906.49
2023-02-28T07:33:43.678Z,101904.50
2023-02-28T07:36:15.551Z,101896.48
2023-02-28T07:38:46.374Z,101904.81
2023-02-28T07:41:16.847Z,101902.80
2023-02-28T07:43:45.134Z,101899.20
2023-02-28T07:46:15.922Z,101898.77
2023-02-28T07:48:45.047Z,101899.98
2023-02-28T07:51:13.213Z,101899.70
2023-02-28T07:53:42.623Z,101900.45
2023-02-28T07:56:11.317Z,101901.35
2023-02-28T07:58:39.454Z,101906.59
2023-02-28T08:01:09.593Z,101906.78
2023-02-28T08:03:38.178Z,101907.18
2023-02-28T08:06:09.085Z,101905.70
2023-02-28T08:08:37.285Z,101907.97
2023-02-28T08:11:05.687Z,101905.88
2023-02-28T08:13:34.540Z,101909.35
2023-02-28T08:16:03.623Z,101909.16
2023-02-28T08:18:34.597Z,101907.85
2023-02-28T08:21:08.635Z,101905.06
2023-02-28T08:23:36.957Z,101903.42
2023-02-28T08:26:05.498Z,101902.02
2023-02-28T08:28:33.647Z,101899.17
2023-02-28T08:31:01.777Z,101902.69
2023-02-28T08:33:30.187Z,101897.92
2023-02-28T08:35:58.443Z,101901.35
2023-02-28T08:38:26.519Z,101902.73
2023-02-28T08:40:59.764Z,101904.10
2023-02-28T08:43:28.024Z,101906.13
2023-02-28T08:45:58.649Z,101904.98
2023-02-28T08:48:27.809Z,101907.17
2023-02-28T08:51:08.638Z,101903.69
2023-02-28T08:53:37.767Z,101908.41
2023-02-28T08:56:08.883Z,101904.85
2023-02-28T08:58:37.191Z,101902.73
2023-02-28T09:01:11.427Z,101908.73
2023-02-28T09:03:41.277Z,101906.48
2023-02-28T09:06:11.083Z,101904.90
2023-02-28T09:08:39.678Z,101907.56
2023-02-28T09:11:23.168Z,101912.73
2023-02-28T09:13:56.329Z,101917.83
2023-02-28T09:16:24.503Z,101922.46
2023-02-28T09:18:52.590Z,101919.90
2023-02-28T09:21:21.106Z,101920.59
2023-02-28T09:23:50.896Z,101920.99
2023-02-28T09:26:21.210Z,101918.62
2023-02-28T09:28:49.395Z,101921.74
2023-02-28T09:31:21.521Z,101922.77
2023-02-28T09:33:49.783Z,101916.94
2023-02-28T09:36:18.474Z,101914.41
2023-02-28T09:38:48.699Z,101911.30
2023-02-28T09:41:21.950Z,101911.90
2023-02-28T09:43:53.658Z,101914.92
2023-02-28T09:46:32.108Z,101915.81
2023-02-28T09:49:03.395Z,101918.68
2023-02-28T09:51:49.250Z,101914.74
2023-02-28T09:54:19.678Z,101922.65
2023-02-28T09:56:53.076Z,101919.52
2023-02-28T09:59:33.381Z,101919.40
2023-02-28T10:02:14.184Z,101918.51
2023-02-28T10:04:55.284Z,101922.89
2023-02-28T10:07:48.319Z,101929.23
2023-02-28T10:10:23.797Z,101930.95
2023-02-28T10:12:56.265Z,101928.88
2023-02-28T10:15:28.780Z,101929.27
2023-02-28T10:18:08.921Z,101926.38
2023-02-28T10:20:40.849Z,101926.41
2023-02-28T10:23:16.988Z,101926.44
2023-02-28T10:25:48.518Z,101919.23
2023-02-28T10:28:18.673Z,101923.69
2023-02-28T10:30:50.546Z,101919.83
2023-02-28T10:33:27.448Z,101919.70
2023-02-28T10:35:55.924Z,101920.95
2023-02-28T10:38:29.724Z,101923.34
2023-02-28T10:41:07.604Z,101921.09
2023-02-28T10:43:36.793Z,101922.96
2023-02-28T10:46:14.434Z,101922.95
2023-02-28T10:48:50.347Z,101917.25
2023-02-28T10:51:23.138Z,101915.33
2023-02-28T10:54:01.013Z,101911.34
2023-02-28T10:56:33.789Z,101908.00
2023-02-28T10:59:04.361Z,101906.48
2023-02-28T11:01:41.263Z,101904.11
2023-02-28T11:04:32.788Z,101906.17
2023-02-28T11:07:03.711Z,101901.23
2023-02-28T11:09:35.633Z,101900.73
2023-02-28T11:12:05.466Z,101894.69
2023-02-28T11:14:40.821Z,101892.36
2023-02-28T11:17:20.397Z,101885.27
2023-02-28T11:19:52.197Z,101878.89
2023-02-28T11:22:23.809Z,101879.58
2023-02-28T11:24:55.353Z,101875.20
2023-02-28T11:27:47.486Z,101871.13
2023-02-28T11:30:34.879Z,101867.65
2023-02-28T11:33:22.364Z,101868.84
2023-02-28T11:35:53.295Z,101870.39
2023-02-28T11:38:21.394Z,101864.06
2023-02-28T11:41:01.381Z,101863.16
2023-02-28T11:43:46.877Z,101858.17
2023-02-28T11:46:22.539Z,101854.56
2023-02-28T11:49:00.196Z,101855.93
2023-02-28T11:51:34.320Z,101853.81
2023-02-28T11:54:24.682Z,101853.54
2023-02-28T11:56:57.958Z,101853.27
2023-02-28T11:59:52.817Z,101852.55
2023-02-28T12:02:29.069Z,101843.65
2023-02-28T12:05:15.456Z,101842.02
2023-02-28T12:07:51.757Z,101843.69
2023-02-28T12:10:25.007Z,101843.55
2023-02-28T12:13:08.760Z,101842.27
2023-02-28T12:16:09.927Z,101841.94
2023-02-28T12:18:53.552Z,101838.77
2023-02-28T12:21:32.261Z,101834.83
2023-02-28T12:24:19.811Z,101832.90
2023-02-28T12:26:50.546Z,101831.37
2023-02-28T12:29:24.267Z,101830.05
2023-02-28T12:31:56.565Z,101826.33
2023-02-28T12:34:29.576Z,101825.20
2023-02-28T12:37:07.746Z,101822.50
2023-02-28T12:39:49.839Z,101818.71
2023-02-28T12:42:24.898Z,101816.27
2023-02-28T12:44:58.961Z,101813.91
2023-02-28T12:47:27.161Z,101806.29
2023-02-28T12:50:00.917Z,101807.52
2023-02-28T12:52:41.489Z,101808.31
2023-02-28T12:55:16.100Z,101811.23
2023-02-28T12:57:51.320Z,101808.21
2023-02-28T13:00:23.983Z,101808.28
2023-02-28T13:03:22.429Z,101805.50
2023-02-28T13:06:25.074Z,101806.74
2023-02-28T13:09:09.909Z,101808.20
2023-02-28T13:11:43.206Z,101803.34
2023-02-28T13:14:30.882Z,101797.09
2023-02-28T13:17:03.151Z,101791.75
2023-02-28T13:19:33.122Z,101792.95
2023-02-28T13:22:01.840Z,101788.14
2023-02-28T13:24:49.071Z,101780.73
2023-02-28T13:27:35.627Z,101778.13
2023-02-28T13:30:41.640Z,101780.52
2023-02-28T13:33:32.833Z,101776.14
2023-02-28T13:36:24.007Z,101769.58
2023-02-28T13:38:53.808Z,101764.36
2023-02-28T13:41:44.119Z,101764.55
2023-02-28T13:44:13.729Z,101763.11
2023-02-28T13:47:26.556Z,101756.08
2023-02-28T13:49:54.623Z,101751.30
2023-02-28T13:52:24.876Z,101745.80
2023-02-28T13:55:05.409Z,101745.06
2023-02-28T13:57:50.236Z,101750.04
2023-02-28T14:00:29.539Z,101746.63
2023-02-28T14:03:13.197Z,101744.27
2023-02-28T14:05:42.065Z,101740.56
2023-02-28T14:08:17.330Z,101737.95
2023-02-28T14:10:46.589Z,101732.13
2023-02-28T14:13:44.518Z,101733.14
2023-02-28T14:16:14.253Z,101727.84
2023-02-28T14:18:50.027Z,101724.44
2023-02-28T14:21:25.903Z,101724.70
2023-02-28T14:24:40.467Z,101718.16
2023-02-28T14:27:22.538Z,101714.66
2023-02-28T14:30:29.230Z,101713.98
2023-02-28T14:33:13.271Z,101710.86
2023-02-28T14:36:24.289Z,101710.27
2023-02-28T14:38:55.712Z,101706.47
2023-02-28T14:41:29.386Z,101711.58
2023-02-28T14:44:00.123Z,101706.47
2023-02-28T14:46:36.234Z,101704.41
2023-02-28T14:49:06.495Z,101701.10
2023-02-28T14:51:35.654Z,101702.80
2023-02-28T14:54:04.650Z,101704.73
2023-02-28T14:56:37.572Z,101705.14
2023-02-28T14:59:25.667Z,101702.44
2023-02-28T15:02:08.792Z,101703.33
2023-02-28T15:04:37.853Z,101703.77
2023-02-28T15:07:15.956Z,101704.40
2023-02-28T15:09:43.949Z,101706.39
2023-02-28T15:12:16.622Z,101703.25
2023-02-28T15:14:45.705Z,101701.55
2023-02-28T15:17:28.511Z,101706.31
2023-02-28T15:19:57.955Z,101709.52
2023-02-28T15:22:32.471Z,101711.71
2023-02-28T15:25:03.131Z,101714.92
2023-02-28T15:27:34.405Z,101715.74
2023-02-28T15:30:08.430Z,101713.34
2023-02-28T15:32:39.970Z,101709.43
2023-02-28T15:35:28.198Z,101704.48
2023-02-28T15:37:58.279Z,101709.70
2023-02-28T15:40:32.162Z,101707.94
2023-02-28T15:43:06.281Z,101705.16
2023-02-28T15:45:38.824Z,101708.46
2023-02-28T15:48:15.375Z,101710.49
2023-02-28T15:50:43.889Z,101708.39
2023-02-28T15:53:18.758Z,101710.08
2023-02-28T15:55:56.342Z,101710.65
2023-02-28T15:58:26.318Z,101714.56
2023-02-28T16:01:06.655Z,101713.69
2023-02-28T16:03:41.998Z,101716.83
2023-02-28T16:06:22.538Z,101717.57
2023-02-28T16:08:53.500Z,101716.27
2023-02-28T16:11:22.978Z,101723.11
2023-02-28T16:13:53.166Z,101725.73
2023-02-28T16:16:27.013Z,101724.91
2023-02-28T16:18:56.172Z,101727.15
2023-02-28T16:21:28.270Z,101723.49
2023-02-28T16:23:56.978Z,101721.88
2023-02-28T16:26:27.997Z,101720.77
2023-02-28T16:28:56.218Z,101723.21
2023-02-28T16:31:25.132Z,101725.59
2023-02-28T16:33:53.247Z,101726.77
2023-02-28T16:36:25.693Z,101725.34
2023-02-28T16:38:57.467Z,101722.77
2023-02-28T16:41:29.645Z,101727.70
2023-02-28T16:44:01.459Z,101728.17
2023-02-28T16:46:35.849Z,101730.04
2023-02-28T16:49:03.966Z,101733.21
2023-02-28T16:51:34.318Z,101740.09
2023-02-28T16:54:07.694Z,101740.58
2023-02-28T16:56:36.679Z,101740.84
2023-02-28T16:59:04.925Z,101746.05
2023-02-28T17:01:33.748Z,101746.38
2023-02-28T17:04:02.214Z,101746.39
2023-02-28T17:06:31.487Z,101746.73
2023-02-28T17:09:00.227Z,101748.13
2023-02-28T17:11:28.625Z,101747.14
2023-02-28T17:13:57.403Z,101750.05
2023-02-28T17:16:29.209Z,101753.30
2023-02-28T17:19:00.432Z,101752.65
2023-02-28T17:21:29.567Z,101753.19
2023-02-28T17:23:57.884Z,101753.73
2023-02-28T17:26:28.508Z,101755.27
2023-02-28T17:28:58.159Z,101754.11
2023-02-28T17:31:27.804Z,101753.73
2023-02-28T17:33:55.982Z,101760.11
2023-02-28T17:36:28.608Z,101759.27
2023-02-28T17:38:58.866Z,101753.89
2023-02-28T17:41:27.292Z,101748.66
2023-02-28T17:43:56.770Z,101747.64
2023-02-28T17:46:26.795Z,101752.17
2023-02-28T17:48:55.317Z,101748.56
2023-02-28T17:51:25.079Z,101744.48
2023-02-28T17:53:53.188Z,101744.89
2023-02-28T17:56:24.076Z,101746.71
2023-02-28T17:58:53.853Z,101744.69
2023-02-28T18:01:24.728Z,101741.31
2023-02-28T18:03:55.913Z,101737.95
2023-02-28T18:06:27.866Z,101734.75
2023-02-28T18:08:56.174Z,101729.17
2023-02-28T18:11:26.361Z,101728.98
2023-02-28T18:13:56.138Z,101727.98
2023-02-28T18:16:24.205Z,101721.79
2023-02-28T18:18:52.704Z,101716.38
2023-02-28T18:21:21.056Z,101707.77
2023-02-28T18:23:49.538Z,101705.65
2023-02-28T18:26:19.309Z,101702.97
2023-02-28T18:28:48.190Z,101705.37
2023-02-28T18:31:24.368Z,101709.34
2023-02-28T18:33:52.951Z,101701.77
2023-02-28T18:36:22.025Z,101695.02
2023-02-28T18:38:50.358Z,101695.47
2023-02-28T18:41:20.089Z,101700.21
2023-02-28T18:43:50.504Z,101694.95
2023-02-28T18:46:20.897Z,101688.36
2023-02-28T18:48:49.196Z,101690.66
2023-02-28T18:51:19.626Z,101689.34
2023-02-28T18:53:48.350Z,101687.88
2023-02-28T18:56:18.457Z,101686.35
2023-02-28T18:58:46.852Z,101686.77
2023-02-28T19:01:17.487Z,101695.20
2023-02-28T19:03:46.226Z,101704.58
2023-02-28T19:06:15.317Z,101710.96
2023-02-28T19:08:43.394Z,101717.77
2023-02-28T19:11:14.974Z,101724.56
2023-02-28T19:13:43.763Z,101723.66
2023-02-28T19:16:13.261Z,101719.82
2023-02-28T19:18:42.052Z,101716.23
2023-02-28T19:21:11.718Z,101720.91
2023-02-28T19:23:41.689Z,101721.34
2023-02-28T19:26:11.563Z,101723.59
2023-02-28T19:28:39.846Z,101722.30
2023-02-28T19:31:13.860Z,101723.98
2023-02-28T19:33:42.376Z,101721.65
2023-02-28T19:36:12.294Z,101723.84
2023-02-28T19:38:40.950Z,101729.63
2023-02-28T19:41:33.572Z,101728.11
2023-02-28T19:44:01.601Z,101734.55
2023-02-28T19:46:29.676Z,101738.06
2023-02-28T19:48:57.958Z,101739.86
2023-02-28T19:51:27.191Z,101738.60
2023-02-28T19:53:55.369Z,101737.02
2023-02-28T19:56:24.060Z,101738.15
2023-02-28T19:58:52.156Z,101739.61
2023-02-28T20:01:20.730Z,101736.35
2023-02-28T20:03:51.133Z,101739.58
2023-02-28T20:06:19.263Z,101738.64
2023-02-28T20:08:47.418Z,101740.54
2023-02-28T20:11:16.707Z,101736.83
2023-02-28T20:13:45.517Z,101741.40
2023-02-28T20:16:15.240Z,101741.05
2023-02-28T20:18:50.753Z,101743.59
2023-02-28T20:21:20.813Z,101753.36
2023-02-28T20:23:49.071Z,101754.23
2023-02-28T20:29:28.144Z,101744.73
2023-02-28T20:32:01.844Z,101731.68
2023-02-28T20:34:30.564Z,101721.55
2023-02-28T20:36:59.135Z,101716.45
2023-02-28T20:39:28.430Z,101714.86
2023-02-28T20:41:57.077Z,101715.73
2023-02-28T20:44:25.493Z,101716.27
2023-02-28T20:46:54.039Z,101718.41
2023-02-28T20:49:23.420Z,101724.90
2023-02-28T20:51:51.862Z,101734.79
2023-02-28T20:54:20.163Z,101736.62
2023-02-28T20:56:48.342Z,101732.52
2023-02-28T20:59:17.250Z,101730.05
2023-02-28T21:01:45.640Z,101730.29
2023-02-28T21:04:14.081Z,101726.21
2023-02-28T21:06:45.774Z,101725.43
2023-02-28T21:09:15.658Z,101723.52
2023-02-28T21:11:44.109Z,101723.52
2023-02-28T21:14:17.454Z,101721.93
2023-02-28T21:16:46.300Z,101721.27
2023-02-28T21:19:14.744Z,101721.30
2023-02-28T21:21:44.337Z,101719.65
2023-02-28T21:24:13.847Z,101718.23
2023-02-28T21:26:44.302Z,101718.00
2023-02-28T21:29:13.569Z,101716.09
2023-02-28T21:31:41.809Z,101716.33
2023-02-28T21:34:12.573Z,101715.34
2023-02-28T21:36:45.076Z,101717.46
2023-02-28T21:39:15.693Z,101712.51
2023-02-28T21:41:43.982Z,101715.23
2023-02-28T21:44:17.846Z,101717.08
2023-02-28T21:47:08.414Z,101720.53
2023-02-28T21:49:38.505Z,101717.38
2023-02-28T21:52:06.971Z,101717.91
2023-02-28T21:54:35.352Z,101721.23
2023-02-28T21:57:03.708Z,101724.14
2023-02-28T21:59:32.135Z,101722.61
2023-02-28T22:02:00.633Z,101719.89
2023-02-28T22:04:28.785Z,101716.91
2023-02-28T22:06:57.965Z,101717.13
2023-02-28T22:09:26.371Z,101717.57
2023-02-28T22:11:54.687Z,101719.27
2023-02-28T22:14:23.193Z,101718.34
2023-02-28T22:16:54.163Z,101713.55
2023-02-28T22:19:23.649Z,101714.63
2023-02-28T22:21:53.468Z,101711.75
2023-02-28T22:24:23.725Z,101704.81
2023-02-28T22:26:52.331Z,101700.74
2023-02-28T22:29:20.472Z,101697.17
2023-02-28T22:31:48.494Z,101696.10
2023-02-28T22:34:16.842Z,101693.27
2023-02-28T22:36:44.920Z,101689.98
2023-02-28T22:39:13.138Z,101697.02
2023-02-28T22:41:41.237Z,101697.44
2023-02-28T22:44:10.582Z,101696.18
2023-02-28T22:46:38.853Z,101692.33
2023-02-28T22:49:07.069Z,101691.35
2023-02-28T22:51:36.049Z,101689.19
2023-02-28T22:54:04.683Z,101688.64
2023-02-28T22:56:35.688Z,101693.36
2023-02-28T22:59:03.837Z,101691.80
2023-02-28T23:01:33.122Z,101696.85
2023-02-28T23:04:02.157Z,101701.50
2023-02-28T23:06:33.365Z,101706.54
2023-02-28T23:09:05.089Z,101716.80
2023-02-28T23:11:36.014Z,101718.33
2023-02-28T23:14:04.393Z,101719.02
2023-02-28T23:16:35.436Z,101722.21
2023-02-28T23:19:06.189Z,101718.67
2023-02-28T23:21:34.951Z,101715.30
2023-02-28T23:24:04.290Z,101708.77
2023-02-28T23:26:33.117Z,101701.33
2023-02-28T23:29:01.338Z,101696.85
2023-02-28T23:31:29.418Z,101695.49
2023-02-28T23:33:57.678Z,101696.19
2023-02-28T23:36:26.028Z,101697.38
2023-02-28T23:38:54.171Z,101700.23
2023-02-28T23:41:23.585Z,101700.77
2023-02-28T23:43:54.072Z,101702.45
2023-02-28T23:46:22.539Z,101708.09
2023-02-28T23:48:50.653Z,101715.77
2023-02-28T23:51:21.222Z,101718.68
2023-02-28T23:54:05.325Z,101718.43
2023-02-28T23:56:41.377Z,101714.26
2023-02-28T23:59:10.693Z,101715.95
